Penn Center, Pennsylvania
Current Conditions -  °F | °C
As of 7:17 PM on Wednesday 22 Oct 2014 (Local Time) from KPHL Reporting Station
Light Rain Light Rain  
Wind Chill: 54°   Ceiling: 3700
Heat Index: 54°   Visibility: 7mi
Dew Point: 50°   Wind: 17mph
Humidity: 86%   Direction: 350°N
Pressure: 29.85"   Gusts: NA
Location:  39.9531°N, 75.1651°W
Report Text: KPHL 222317Z 35015KT 7SM -RA BKN037 OVC045 12/10 A2985 RMK AO2 P0000 T01220100 $
Loading
Personal Weather Stations






























Interactive Weather Map
Tropical Storm Tracking
New forecast layout! Learn more

10-Day Weather Forecast

Advertisements
Track Severe Weather on mobile